Time;durP1;ratioP1;P1;durP2;ratioP2;P2;SDS_P1;SDS_P2;PMS_P1;PMS_P2;Temp;Humidity;BMP_temperature;BMP_pressure;BME280_temperature;BME280_humidity;BME280_pressure;Samples;Min_cycle;Max_cycle;Signal;HPM_P1;HPM_P2
2023/01/24 00:00:57;;;;;;;0.00;0.00;;;;;;;-1.09;100.00;102579.31;4882996;29;20367;-72
2023/01/24 00:03:22;;;;;;;0.10;0.10;;;;;;;-1.06;100.00;102579.06;4912024;29;20036;-72
2023/01/24 00:05:49;;;;;;;0.00;0.00;;;;;;;-0.96;100.00;102584.47;4895017;29;20031;-72
2023/01/24 00:08:22;;;;;;;0.10;0.10;;;;;;;-0.86;100.00;102593.41;4910715;29;20054;-72
2023/01/24 00:10:48;;;;;;;0.10;0.10;;;;;;;-0.75;100.00;102587.06;4916473;29;20036;-73
2023/01/24 00:13:15;;;;;;;0.10;0.10;;;;;;;-0.62;100.00;102584.94;4881674;29;20503;-73
2023/01/24 00:15:41;;;;;;;0.00;0.00;;;;;;;-0.46;100.00;102575.50;4897953;29;20442;-72
2023/01/24 00:18:09;;;;;;;0.10;0.10;;;;;;;-0.34;100.00;102576.22;4887379;29;20034;-71
2023/01/24 00:20:34;;;;;;;0.10;0.10;;;;;;;-0.25;100.00;102586.97;4893429;29;20124;-73
2023/01/24 00:22:59;;;;;;;0.00;0.00;;;;;;;-0.17;100.00;102583.56;4912620;29;20367;-73
2023/01/24 00:25:25;;;;;;;0.10;0.10;;;;;;;-0.14;100.00;102580.59;4862252;29;20075;-73
2023/01/24 00:27:50;;;;;;;0.00;0.00;;;;;;;-0.01;100.00;102588.38;4894745;29;20066;-72
2023/01/24 00:30:16;;;;;;;0.10;0.10;;;;;;;0.01;100.00;102588.25;4893540;29;20032;-72
2023/01/24 00:32:41;;;;;;;0.10;0.10;;;;;;;0.05;100.00;102592.34;4898112;29;20033;-72
2023/01/24 00:35:07;;;;;;;0.00;0.00;;;;;;;0.06;100.00;102602.97;4902681;29;20087;-72
2023/01/24 00:37:33;;;;;;;0.10;0.10;;;;;;;0.10;100.00;102593.63;4897752;29;20094;-72
2023/01/24 00:39:58;;;;;;;0.10;0.10;;;;;;;0.17;100.00;102600.09;4898459;29;20467;-72
2023/01/24 00:42:23;;;;;;;0.00;0.00;;;;;;;0.24;100.00;102600.38;4896274;29;20063;-72
2023/01/24 00:44:49;;;;;;;0.00;0.00;;;;;;;0.34;100.00;102600.38;4894349;29;20185;-72
2023/01/24 00:47:14;;;;;;;0.10;0.10;;;;;;;0.36;100.00;102582.22;4880103;29;20035;-73
2023/01/24 00:49:40;;;;;;;0.00;0.00;;;;;;;0.43;100.00;102588.72;4893794;29;20123;-73
2023/01/24 00:52:07;;;;;;;0.10;0.10;;;;;;;0.53;100.00;102594.09;4897155;29;20043;-73
2023/01/24 00:54:33;;;;;;;0.08;0.08;;;;;;;0.56;100.00;102583.03;4924369;29;20035;-72
2023/01/24 00:56:58;;;;;;;0.00;0.00;;;;;;;0.59;100.00;102588.09;4913728;29;20396;-72
2023/01/24 00:59:23;;;;;;;0.00;0.00;;;;;;;0.65;100.00;102586.69;4891549;29;20043;-72
2023/01/24 01:01:49;;;;;;;0.00;0.00;;;;;;;0.67;100.00;102590.06;4897119;29;20049;-72
2023/01/24 01:04:14;;;;;;;0.10;0.10;;;;;;;0.71;100.00;102590.63;4878860;29;20048;-73
2023/01/24 01:06:40;;;;;;;0.10;0.10;;;;;;;0.74;100.00;102583.09;4885879;29;20127;-73
2023/01/24 01:09:06;;;;;;;0.10;0.10;;;;;;;0.78;100.00;102587.19;4882836;29;20032;-71
2023/01/24 01:11:31;;;;;;;0.00;0.00;;;;;;;0.77;100.00;102581.94;4896696;29;20024;-72
2023/01/24 01:13:57;;;;;;;0.00;0.00;;;;;;;0.84;100.00;102586.59;4904328;29;20064;-72
2023/01/24 01:16:23;;;;;;;0.00;0.00;;;;;;;0.84;100.00;102589.28;4891789;29;20048;-72
2023/01/24 01:18:52;;;;;;;0.10;0.10;;;;;;;0.84;100.00;102585.75;4898364;29;20090;-72
2023/01/24 01:21:19;;;;;;;0.10;0.10;;;;;;;0.86;100.00;102589.13;4892337;29;20047;-72
2023/01/24 01:23:47;;;;;;;0.10;0.10;;;;;;;0.84;100.00;102586.59;4898669;29;20039;-73
2023/01/24 01:26:19;;;;;;;0.00;0.00;;;;;;;0.78;100.00;102581.81;4912341;29;20024;-72
2023/01/24 01:28:45;;;;;;;0.00;0.00;;;;;;;0.73;100.00;102584.09;4894964;29;20471;-71
2023/01/24 01:31:11;;;;;;;0.00;0.00;;;;;;;0.75;100.00;102595.56;4914550;29;20455;-71
2023/01/24 01:33:37;;;;;;;0.10;0.10;;;;;;;0.69;100.00;102580.00;4912075;29;20028;-72
2023/01/24 01:36:02;;;;;;;0.00;0.00;;;;;;;0.70;100.00;102581.69;4888843;29;20794;-72
2023/01/24 01:38:28;;;;;;;0.10;0.10;;;;;;;0.75;100.00;102587.50;4877258;29;20032;-71
2023/01/24 01:40:54;;;;;;;0.10;0.10;;;;;;;0.83;100.00;102584.03;4881648;29;20090;-72
2023/01/24 01:43:24;;;;;;;0.00;0.00;;;;;;;0.82;100.00;102582.38;4893159;29;20119;-72
2023/01/24 01:45:54;;;;;;;0.00;0.00;;;;;;;0.80;100.00;102590.56;4913609;29;20039;-71
2023/01/24 01:48:29;;;;;;;0.10;0.10;;;;;;;0.80;100.00;102587.88;4912488;29;20119;-72
2023/01/24 01:51:26;;;;;;;0.10;0.10;;;;;;;0.86;100.00;102600.78;4906607;29;20068;-72
2023/01/24 01:53:57;;;;;;;0.10;0.10;;;;;;;0.94;100.00;102596.50;4888585;29;20487;-73
2023/01/24 01:56:35;;;;;;;0.10;0.10;;;;;;;0.96;100.00;102594.47;4886930;29;20035;-72
2023/01/24 01:59:09;;;;;;;0.10;0.10;;;;;;;0.97;100.00;102596.19;4906525;29;20368;-72
2023/01/24 02:01:35;;;;;;;0.10;0.10;;;;;;;1.01;100.00;102586.81;4895800;29;20473;-72
2023/01/24 02:04:13;;;;;;;0.10;0.10;;;;;;;1.07;100.00;102596.13;4912811;29;20131;-72
2023/01/24 02:07:04;;;;;;;0.00;0.00;;;;;;;1.17;100.00;102603.19;4912784;29;20035;-72
2023/01/24 02:09:38;;;;;;;0.00;0.00;;;;;;;1.25;100.00;102606.97;4904083;29;20915;-72
2023/01/24 02:12:08;;;;;;;0.10;0.10;;;;;;;1.34;100.00;102606.06;4888742;29;20818;-71
2023/01/24 02:17:21;;;;;;;0.10;0.10;;;;;;;1.45;100.00;102605.00;4914652;29;20042;-72
2023/01/24 02:19:52;;;;;;;0.10;0.10;;;;;;;1.52;100.00;102609.63;4911275;29;20521;-71
2023/01/24 02:22:39;;;;;;;0.10;0.10;;;;;;;1.57;100.00;102610.00;4906478;29;20032;-72
2023/01/24 02:25:14;;;;;;;0.10;0.10;;;;;;;1.57;100.00;102599.22;4911357;29;20388;-73
2023/01/24 02:27:40;;;;;;;0.00;0.00;;;;;;;1.61;100.00;102601.59;4894600;29;20123;-72
2023/01/24 02:30:05;;;;;;;0.00;0.00;;;;;;;1.65;100.00;102593.06;4861822;29;20415;-72
2023/01/24 02:32:31;;;;;;;0.00;0.00;;;;;;;1.63;100.00;102602.31;4895604;29;20095;-72
2023/01/24 02:34:57;;;;;;;0.10;0.10;;;;;;;1.56;100.00;102597.53;4883978;29;20032;-71
2023/01/24 02:37:24;;;;;;;0.10;0.10;;;;;;;1.60;100.00;102597.22;4902325;29;20031;-72
2023/01/24 02:39:55;;;;;;;0.00;0.00;;;;;;;1.67;100.00;102601.03;4878162;29;20094;-73
2023/01/24 02:42:30;;;;;;;0.00;0.00;;;;;;;1.69;100.00;102605.22;4911141;29;20118;-72
2023/01/24 02:45:02;;;;;;;0.05;0.05;;;;;;;1.75;100.00;102603.78;4902038;29;20028;-72
2023/01/24 02:47:32;;;;;;;0.10;0.10;;;;;;;1.78;100.00;102610.72;4916088;29;20095;-72
2023/01/24 02:49:59;;;;;;;0.00;0.00;;;;;;;1.77;100.00;102609.88;4910738;29;20047;-72
2023/01/24 02:55:10;;;;;;;0.10;0.10;;;;;;;1.79;100.00;102613.25;4882648;29;20035;-72
2023/01/24 03:00:20;;;;;;;0.03;0.03;;;;;;;1.78;100.00;102619.66;4885400;29;20506;-72
2023/01/24 03:02:45;;;;;;;0.00;0.00;;;;;;;1.78;100.00;102616.13;4904973;29;20056;-72
2023/01/24 03:05:11;;;;;;;0.00;0.00;;;;;;;1.73;100.00;102619.28;4903153;29;20458;-71
2023/01/24 03:07:44;;;;;;;0.00;0.00;;;;;;;1.64;100.00;102614.81;4893177;29;20526;-71
2023/01/24 03:10:12;;;;;;;0.00;0.00;;;;;;;1.60;100.00;102626.91;4860151;29;20284;-72
2023/01/24 03:34:45;;;;;;;0.10;0.10;;;;;;;1.71;100.00;102621.28;4899787;29;20046;-72
2023/01/24 03:37:11;;;;;;;0.00;0.00;;;;;;;1.67;100.00;102617.19;4893966;29;20044;-71
2023/01/24 03:39:58;;;;;;;0.10;0.10;;;;;;;1.68;100.00;102618.88;4881644;29;20028;-71
2023/01/24 03:42:26;;;;;;;0.00;0.00;;;;;;;1.69;100.00;102625.97;4903224;29;20853;-71
2023/01/24 03:44:53;;;;;;;0.00;0.00;;;;;;;1.65;100.00;102617.34;4883440;29;20055;-71
2023/01/24 03:47:19;;;;;;;0.10;0.10;;;;;;;1.67;100.00;102614.50;4907833;29;20032;-72
2023/01/24 03:52:30;;;;;;;0.10;0.10;;;;;;;1.68;100.00;102616.19;4891590;29;20107;-72
2023/01/24 03:55:00;;;;;;;0.00;0.00;;;;;;;1.67;100.00;102609.09;4898502;29;20126;-72
2023/01/24 03:57:27;;;;;;;0.10;0.10;;;;;;;1.70;100.00;102609.63;4896700;29;20028;-72
2023/01/24 03:59:53;;;;;;;0.00;0.00;;;;;;;1.70;100.00;102608.78;4900665;29;20038;-72
2023/01/24 04:02:19;;;;;;;0.00;0.00;;;;;;;1.76;100.00;102612.72;4901897;29;20530;-70
2023/01/24 04:07:28;;;;;;;0.00;0.00;;;;;;;1.81;100.00;102605.88;4899447;29;20176;-70
2023/01/24 04:09:54;;;;;;;0.00;0.00;;;;;;;1.77;100.00;102599.09;4892841;29;20080;-71
2023/01/24 04:12:20;;;;;;;0.00;0.00;;;;;;;1.84;100.00;102605.56;4898865;29;20028;-71
2023/01/24 04:14:45;;;;;;;0.10;0.10;;;;;;;1.82;100.00;102601.31;4907872;29;20391;-72
2023/01/24 04:17:11;;;;;;;0.00;0.00;;;;;;;1.84;100.00;102605.56;4914681;29;20070;-72
2023/01/24 04:19:36;;;;;;;0.00;0.00;;;;;;;1.85;100.00;102604.53;4909621;29;20542;-73
2023/01/24 04:22:02;;;;;;;0.10;0.10;;;;;;;1.84;100.00;102600.16;4897645;29;20485;-73
2023/01/24 04:24:28;;;;;;;0.10;0.10;;;;;;;1.89;100.00;102605.94;4895870;29;20092;-72
2023/01/24 04:26:53;;;;;;;0.00;0.00;;;;;;;1.85;100.00;102596.44;4894315;29;20051;-72
2023/01/24 04:29:18;;;;;;;0.00;0.00;;;;;;;1.84;100.00;102597.47;4897379;29;20028;-73
2023/01/24 04:31:44;;;;;;;0.00;0.00;;;;;;;1.83;100.00;102603.84;4893435;29;20036;-72
2023/01/24 04:34:09;;;;;;;0.10;0.10;;;;;;;1.81;100.00;102589.69;4906449;29;20033;-72
2023/01/24 04:36:35;;;;;;;0.10;0.10;;;;;;;1.82;100.00;102602.16;4894205;29;20044;-73
2023/01/24 04:39:00;;;;;;;0.00;0.00;;;;;;;1.81;100.00;102600.47;4878318;29;21816;-72
2023/01/24 04:41:26;;;;;;;0.00;0.00;;;;;;;1.76;100.00;102602.78;4913529;29;20056;-72
2023/01/24 04:43:51;;;;;;;0.10;0.10;;;;;;;1.68;100.00;102598.16;4911213;29;20036;-71
2023/01/24 04:46:17;;;;;;;0.00;0.00;;;;;;;1.66;100.00;102599.31;4867501;29;20028;-72
2023/01/24 04:48:42;;;;;;;0.10;0.10;;;;;;;1.67;100.00;102598.31;4914592;29;20042;-73
2023/01/24 04:51:09;;;;;;;0.10;0.10;;;;;;;1.70;100.00;102608.78;4892781;29;20104;-72
2023/01/24 04:53:38;;;;;;;0.00;0.00;;;;;;;1.68;100.00;102605.38;4910201;29;20452;-72
2023/01/24 04:56:04;;;;;;;0.00;0.00;;;;;;;1.66;100.00;102599.31;4909587;29;20457;-73
2023/01/24 04:58:30;;;;;;;0.00;0.00;;;;;;;1.61;100.00;102599.78;4864370;29;20076;-72
2023/01/24 05:00:56;;;;;;;0.00;0.00;;;;;;;1.56;100.00;102596.69;4907195;29;20024;-72
2023/01/24 05:03:24;;;;;;;0.00;0.00;;;;;;;1.54;100.00;102596.81;4862732;29;20056;-72
2023/01/24 05:05:50;;;;;;;0.00;0.00;;;;;;;1.49;100.00;102607.25;4879885;29;20039;-72
2023/01/24 05:08:16;;;;;;;0.10;0.10;;;;;;;1.43;100.00;102597.06;4875328;29;20125;-72
2023/01/24 05:10:41;;;;;;;0.00;0.00;;;;;;;1.40;100.00;102597.34;4894780;29;20036;-71
2023/01/24 05:13:07;;;;;;;0.00;0.00;;;;;;;1.36;100.00;102601.38;4888414;29;20040;-72
2023/01/24 05:15:32;;;;;;;0.00;0.00;;;;;;;1.34;100.00;102597.97;4893822;29;20040;-70
2023/01/24 05:17:58;;;;;;;0.10;0.10;;;;;;;1.33;100.00;102598.94;4901574;29;20039;-70
2023/01/24 05:20:23;;;;;;;0.00;0.00;;;;;;;1.41;100.00;102604.44;4912412;29;20463;-71
2023/01/24 05:22:49;;;;;;;0.10;0.10;;;;;;;1.41;100.00;102603.59;4895497;29;20028;-71
2023/01/24 05:25:18;;;;;;;0.10;0.10;;;;;;;1.35;100.00;102599.66;4870852;29;20036;-73
2023/01/24 05:27:44;;;;;;;0.10;0.10;;;;;;;1.31;100.00;102609.06;4904082;29;20093;-71
2023/01/24 05:30:10;;;;;;;0.10;0.10;;;;;;;1.22;100.00;102603.56;4876279;29;20055;-72
2023/01/24 05:32:35;;;;;;;0.10;0.10;;;;;;;1.20;100.00;102610.97;4880383;29;20032;-73
2023/01/24 05:35:00;;;;;;;0.10;0.10;;;;;;;1.15;100.00;102605.16;4899554;29;20039;-71
2023/01/24 05:37:26;;;;;;;0.00;0.00;;;;;;;1.11;100.00;102598.41;4904500;29;20033;-72
2023/01/24 05:39:51;;;;;;;0.00;0.00;;;;;;;1.00;100.00;102593.19;4906410;29;20032;-72
2023/01/24 05:42:17;;;;;;;0.00;0.00;;;;;;;0.91;100.00;102591.41;4892523;29;20038;-72
2023/01/24 05:44:42;;;;;;;0.00;0.00;;;;;;;0.79;100.00;102594.28;4910221;29;20386;-73
2023/01/24 05:47:08;;;;;;;0.00;0.00;;;;;;;0.74;100.00;102591.16;4896574;29;20118;-73
2023/01/24 05:49:33;;;;;;;0.00;0.00;;;;;;;0.66;100.00;102586.53;4871612;29;20060;-72
2023/01/24 05:51:58;;;;;;;0.00;0.00;;;;;;;0.56;100.00;102592.94;4886451;29;20399;-72
2023/01/24 05:54:24;;;;;;;0.00;0.00;;;;;;;0.45;100.00;102594.81;4873664;29;20023;-72
2023/01/24 05:56:49;;;;;;;0.00;0.00;;;;;;;0.32;100.00;102602.34;4876572;29;20028;-73
2023/01/24 05:59:14;;;;;;;0.00;0.00;;;;;;;0.20;100.00;102598.13;4881658;29;20466;-72
2023/01/24 06:01:43;;;;;;;0.00;0.00;;;;;;;0.07;100.00;102599.25;4875385;29;20535;-72
2023/01/24 06:04:08;;;;;;;0.00;0.00;;;;;;;-0.08;100.00;102587.25;4911262;29;20044;-71
2023/01/24 06:06:34;;;;;;;0.10;0.10;;;;;;;-0.27;100.00;102586.25;4890051;29;20020;-72
2023/01/24 06:08:59;;;;;;;0.10;0.10;;;;;;;-0.40;100.00;102588.38;4910661;29;20036;-72
2023/01/24 06:11:27;;;;;;;0.00;0.00;;;;;;;-0.55;100.00;102579.88;4877314;29;20169;-71
2023/01/24 06:13:56;;;;;;;0.10;0.10;;;;;;;-0.65;100.00;102587.06;4913099;29;20043;-72
2023/01/24 06:16:24;;;;;;;0.00;0.00;;;;;;;-0.77;100.00;102592.56;4906972;29;20043;-71
2023/01/24 06:18:50;;;;;;;0.00;0.00;;;;;;;-0.89;100.00;102580.25;4896512;29;20097;-72
2023/01/24 06:21:24;;;;;;;0.00;0.00;;;;;;;-0.96;100.00;102584.47;4907610;29;20482;-73
2023/01/24 06:23:50;;;;;;;0.10;0.10;;;;;;;-1.07;100.00;102588.97;4884477;29;20031;-72
2023/01/24 06:26:15;;;;;;;0.10;0.10;;;;;;;-1.12;100.00;102584.97;4886183;29;20379;-71
2023/01/24 06:28:41;;;;;;;0.08;0.08;;;;;;;-1.20;100.00;102587.47;4891127;29;20507;-72
2023/01/24 06:31:12;;;;;;;0.10;0.10;;;;;;;-1.27;100.00;102585.34;4878999;29;20024;-73
2023/01/24 06:33:46;;;;;;;0.00;0.00;;;;;;;-1.26;100.00;102594.22;4897801;29;20028;-72
2023/01/24 06:36:18;;;;;;;;;;;;;;;-1.30;100.00;102588.28;4902417;29;20023;-72
2023/01/24 06:38:56;;;;;;;0.10;0.10;;;;;;;-1.35;100.00;102587.84;4920205;29;19931;-71
2023/01/24 06:41:25;;;;;;;0.00;0.00;;;;;;;-1.38;100.00;102600.69;4930647;29;20008;-72
2023/01/24 06:43:51;;;;;;;0.10;0.10;;;;;;;-1.49;100.00;102588.19;4907316;29;20032;-73
2023/01/24 06:46:16;;;;;;;0.10;0.10;;;;;;;-1.46;100.00;102593.28;4895956;29;20039;-73
2023/01/24 06:48:44;;;;;;;0.10;0.10;;;;;;;-1.55;100.00;102589.56;4895351;29;20510;-72
2023/01/24 06:51:13;;;;;;;0.10;0.10;;;;;;;-1.55;100.00;102594.09;4894640;29;20032;-71
2023/01/24 06:53:38;;;;;;;0.10;0.10;;;;;;;-1.58;100.00;102596.06;4895245;29;20050;-72
2023/01/24 06:56:04;;;;;;;0.00;0.00;;;;;;;-1.64;100.00;102590.38;4883098;29;20565;-73
2023/01/24 06:58:29;;;;;;;0.10;0.10;;;;;;;-1.64;100.00;102607.31;4894355;29;20040;-73
2023/01/24 07:00:54;;;;;;;0.08;0.08;;;;;;;-1.67;100.00;102604.03;4894672;29;20036;-72
2023/01/24 07:03:20;;;;;;;0.10;0.10;;;;;;;-1.68;100.00;102599.66;4893613;29;20044;-72
2023/01/24 07:05:47;;;;;;;0.00;0.00;;;;;;;-1.73;100.00;102610.78;4909567;29;20032;-72
2023/01/24 07:08:12;;;;;;;0.10;0.10;;;;;;;-1.77;100.00;102612.03;4887213;29;20167;-72
2023/01/24 07:10:38;;;;;;;0.10;0.10;;;;;;;-1.78;100.00;102615.72;4900050;29;20126;-72
2023/01/24 07:13:06;;;;;;;0.10;0.10;;;;;;;-1.80;100.00;102612.28;4913503;29;20045;-70
2023/01/24 07:15:33;;;;;;;0.10;0.10;;;;;;;-1.82;100.00;102607.06;4909497;29;20066;-73
2023/01/24 07:18:07;;;;;;;0.00;0.00;;;;;;;-1.87;100.00;102605.75;4889638;29;20064;-77
2023/01/24 07:20:35;;;;;;;0.10;0.10;;;;;;;-1.98;100.00;102599.47;4878905;29;20507;-77
2023/01/24 07:23:04;;;;;;;0.10;0.10;;;;;;;-2.01;100.00;102606.94;4859143;29;20047;-77
2023/01/24 07:25:30;;;;;;;0.10;0.10;;;;;;;-2.08;100.00;102609.25;4895644;29;20020;-76
2023/01/24 07:27:58;;;;;;;0.10;0.10;;;;;;;-2.06;100.00;102623.38;4881531;29;20352;-76
2023/01/24 07:30:24;;;;;;;0.10;0.10;;;;;;;-2.07;100.00;102623.50;4907054;29;20039;-75
2023/01/24 07:32:49;;;;;;;0.10;0.10;;;;;;;-2.12;100.00;102629.25;4898253;29;20032;-76
2023/01/24 07:35:15;;;;;;;0.10;0.10;;;;;;;-2.12;100.00;102637.31;4915776;29;20099;-76
2023/01/24 07:37:40;;;;;;;0.10;0.10;;;;;;;-2.21;100.00;102627.34;4894077;29;20127;-76
2023/01/24 07:40:06;;;;;;;0.10;0.10;;;;;;;-2.31;100.00;102625.44;4867461;29;20119;-76
2023/01/24 07:42:31;;;;;;;0.10;0.10;;;;;;;-2.34;100.00;102636.41;4878021;29;20107;-76
2023/01/24 07:44:58;;;;;;;0.10;0.10;;;;;;;-2.32;100.00;102650.53;4873615;29;20036;-77
2023/01/24 07:47:25;;;;;;;0.10;0.10;;;;;;;-2.35;100.00;102656.16;4877652;29;20032;-77
2023/01/24 07:49:51;;;;;;;0.10;0.10;;;;;;;-2.40;100.00;102655.66;4913762;29;20031;-77
2023/01/24 07:52:16;;;;;;;0.10;0.10;;;;;;;-2.42;100.00;102649.59;4881811;29;20036;-77
2023/01/24 07:54:42;;;;;;;0.10;0.10;;;;;;;-2.40;100.00;102663.72;4878679;29;20039;-77
2023/01/24 07:57:08;;;;;;;0.10;0.10;;;;;;;-2.43;100.00;102663.97;4880962;29;20060;-77
2023/01/24 07:59:33;;;;;;;0.10;0.10;;;;;;;-2.45;100.00;102660.56;4874268;29;20111;-76
2023/01/24 08:01:58;;;;;;;0.10;0.10;;;;;;;-2.53;100.00;102657.66;4889525;29;20252;-77
2023/01/24 08:04:24;;;;;;;0.10;0.10;;;;;;;-2.54;100.00;102662.16;4876759;29;20044;-79
2023/01/24 08:09:33;;;;;;;0.10;0.10;;;;;;;-2.53;100.00;102663.84;4884865;29;20051;-77
2023/01/24 08:11:59;;;;;;;0.10;0.10;;;;;;;-2.48;100.00;102668.84;4914796;29;20487;-77
2023/01/24 08:14:24;;;;;;;0.00;0.00;;;;;;;-2.56;100.00;102647.19;4857183;29;20124;-78
2023/01/24 08:16:50;;;;;;;0.10;0.10;;;;;;;-2.42;100.00;102664.81;4886910;29;20039;-77
2023/01/24 08:19:15;;;;;;;0.10;0.10;;;;;;;-2.39;100.00;102660.06;4885740;29;20060;-77
2023/01/24 08:21:41;;;;;;;0.10;0.10;;;;;;;-2.29;100.00;102671.72;4903387;29;20108;-76
2023/01/24 08:24:07;;;;;;;0.10;0.10;;;;;;;-2.24;100.00;102671.34;4899174;29;20020;-77
2023/01/24 08:26:32;;;;;;;0.10;0.10;;;;;;;-2.15;100.00;102677.78;4887993;29;20039;-78
2023/01/24 08:28:58;;;;;;;0.10;0.10;;;;;;;-2.08;100.00;102672.78;4874640;29;20035;-76
2023/01/24 08:31:23;;;;;;;0.03;0.03;;;;;;;-2.02;100.00;102678.44;4924293;29;20027;-77
2023/01/24 08:33:49;;;;;;;0.10;0.10;;;;;;;-1.99;100.00;102675.50;4911883;29;20052;-75
2023/01/24 08:36:14;;;;;;;0.10;0.10;;;;;;;-1.85;100.00;102690.47;4903800;29;20020;-75
2023/01/24 08:38:40;;;;;;;0.10;0.10;;;;;;;-1.77;100.00;102688.00;4894339;29;20055;-74
2023/01/24 08:41:05;;;;;;;0.00;0.00;;;;;;;-1.68;100.00;102689.06;4865628;29;20802;-74
2023/01/24 08:43:31;;;;;;;0.00;0.00;;;;;;;-1.60;100.00;102691.09;4886019;29;20040;-74
2023/01/24 08:45:57;;;;;;;0.10;0.10;;;;;;;-1.52;100.00;102685.06;4913729;29;20188;-74
2023/01/24 08:48:22;;;;;;;0.10;0.10;;;;;;;-1.36;100.00;102701.53;4884785;29;20125;-74
2023/01/24 08:50:48;;;;;;;0.10;0.10;;;;;;;-1.30;100.00;102695.69;4906136;29;20435;-75
2023/01/24 08:53:14;;;;;;;0.00;0.00;;;;;;;-1.21;100.00;102698.53;4919277;29;20123;-74
2023/01/24 08:55:40;;;;;;;0.00;0.00;;;;;;;-1.12;100.00;102703.97;4880096;29;20467;-74
2023/01/24 08:58:05;;;;;;;0.10;0.10;;;;;;;-1.04;100.00;102700.59;4888155;29;20038;-75
2023/01/24 09:00:31;;;;;;;0.10;0.10;;;;;;;-0.92;100.00;102702.25;4899318;29;20028;-73
2023/01/24 09:03:00;;;;;;;0.10;0.10;;;;;;;-0.74;100.00;102713.19;4874616;29;20043;-74
2023/01/24 09:05:29;;;;;;;0.10;0.10;;;;;;;-0.62;100.00;102722.00;4913313;29;20032;-74
2023/01/24 09:07:55;;;;;;;0.10;0.10;;;;;;;-0.54;100.00;102716.81;4877116;29;21073;-75
2023/01/24 09:10:23;;;;;;;0.10;0.10;;;;;;;-0.39;100.00;102711.91;4914743;29;20459;-75
2023/01/24 09:12:49;;;;;;;0.10;0.10;;;;;;;-0.20;100.00;102711.09;4884984;29;20036;-76
2023/01/24 09:15:14;;;;;;;0.10;0.10;;;;;;;-0.05;100.00;102708.84;4883207;29;20091;-74
2023/01/24 09:17:47;;;;;;;0.00;0.00;;;;;;;0.10;100.00;102706.63;4900178;29;20064;-74
2023/01/24 09:20:12;;;;;;;0.10;0.10;;;;;;;0.23;100.00;102716.25;4901647;29;20024;-76
2023/01/24 09:22:38;;;;;;;0.10;0.10;;;;;;;0.33;100.00;102714.41;4897493;29;20204;-76
2023/01/24 09:25:05;;;;;;;0.10;0.10;;;;;;;1.18;100.00;102696.53;4892234;29;20020;-76
2023/01/24 09:27:30;;;;;;;0.00;0.00;;;;;;;4.68;100.00;102716.25;4912986;29;20024;-75
2023/01/24 09:29:55;;;;;;;0.00;0.00;;;;;;;8.65;100.00;102719.94;4883738;29;20509;-75
2023/01/24 09:32:21;;;;;;;0.10;0.10;;;;;;;11.65;100.00;102722.53;4881432;29;20052;-75
2023/01/24 09:34:47;;;;;;;0.10;0.10;;;;;;;13.77;100.00;102735.81;4881161;29;20398;-75
2023/01/24 09:37:20;;;;;;;0.10;0.10;;;;;;;15.32;100.00;102730.38;4882444;29;20039;-75
2023/01/24 09:39:46;;;;;;;0.00;0.00;;;;;;;16.69;100.00;102720.53;4911381;29;20028;-74
2023/01/24 09:42:29;;;;;;;0.00;0.00;;;;;;;17.96;100.00;102737.28;4870938;29;20039;-76
2023/01/24 09:45:12;;;;;;;0.00;0.00;;;;;;;19.11;100.00;102728.84;4891520;29;20029;-75
2023/01/24 09:47:55;;;;;;;0.00;0.00;;;;;;;20.05;100.00;102724.28;4909611;29;20023;-75
2023/01/24 09:50:41;;;;;;;0.00;0.00;;;;;;;20.78;100.00;102738.22;4912975;29;20032;-75
2023/01/24 09:53:18;;;;;;;0.00;0.00;;;;;;;21.21;100.00;102738.72;4908024;29;20036;-74
2023/01/24 09:55:45;;;;;;;0.00;0.00;;;;;;;21.97;100.00;102734.78;4898504;29;20028;-75
2023/01/24 09:58:31;;;;;;;0.00;0.00;;;;;;;22.37;100.00;102734.84;4896086;29;20060;-75
2023/01/24 10:01:11;;;;;;;0.00;0.00;;;;;;;22.83;100.00;102741.97;4883625;29;20091;-75
2023/01/24 10:03:39;;;;;;;0.00;0.00;;;;;;;23.20;100.00;102720.13;4909212;29;20131;-74
2023/01/24 10:06:17;;;;;;;0.00;0.00;;;;;;;23.49;99.65;102737.63;4873480;29;20052;-73
2023/01/24 10:09:14;;;;;;;0.00;0.00;;;;;;;23.99;95.40;102739.22;4895076;29;20034;-74
2023/01/24 10:12:15;;;;;;;0.00;0.00;;;;;;;24.80;89.12;102730.66;4906237;29;20076;-74
2023/01/24 10:15:08;;;;;;;0.00;0.00;;;;;;;25.72;85.62;102738.41;4887543;29;20043;-75
2023/01/24 10:17:56;;;;;;;0.00;0.00;;;;;;;26.26;83.66;102728.19;4891833;29;20063;-74
2023/01/24 10:20:44;;;;;;;0.00;0.00;;;;;;;26.92;82.23;102732.41;4883077;29;20040;-75
2023/01/24 10:23:25;;;;;;;0.00;0.00;;;;;;;27.67;80.84;102724.09;4901332;29;20036;-74
2023/01/24 10:26:16;;;;;;;0.00;0.00;;;;;;;28.46;79.35;102732.56;4906157;29;20060;-76
2023/01/24 10:28:49;;;;;;;0.00;0.00;;;;;;;28.58;79.35;102724.28;4907840;29;20032;-75
2023/01/24 10:31:28;;;;;;;0.00;0.00;;;;;;;29.11;78.04;102712.84;4912634;29;20114;-76
2023/01/24 10:34:12;;;;;;;0.00;0.00;;;;;;;29.42;77.60;102712.53;4889512;29;20462;-74
2023/01/24 10:36:58;;;;;;;0.00;0.00;;;;;;;30.19;76.74;102712.31;4903560;29;20490;-74
2023/01/24 10:39:25;;;;;;;0.00;0.00;;;;;;;30.57;75.76;102713.28;4907603;29;20030;-76
2023/01/24 10:41:51;;;;;;;0.00;0.00;;;;;;;30.95;75.48;102731.94;4912142;29;20059;-75
2023/01/24 10:44:34;;;;;;;0.00;0.00;;;;;;;31.43;75.66;102724.66;4899048;29;20140;-76
2023/01/24 10:47:14;;;;;;;0.00;0.00;;;;;;;31.93;74.82;102727.44;4912051;29;20039;-75
2023/01/24 10:49:51;;;;;;;0.00;0.00;;;;;;;32.23;74.29;102722.28;4911488;29;20028;-76
2023/01/24 10:52:23;;;;;;;0.00;0.00;;;;;;;32.65;74.06;102703.97;4896438;29;20117;-76
2023/01/24 10:54:55;;;;;;;0.00;0.00;;;;;;;33.04;73.43;102716.34;4906896;29;20038;-75
2023/01/24 10:57:32;;;;;;;0.00;0.00;;;;;;;33.44;73.49;102716.50;4909741;29;20091;-75
2023/01/24 11:00:16;;;;;;;0.00;0.00;;;;;;;33.87;73.25;102712.63;4909906;29;20106;-77
2023/01/24 11:02:46;;;;;;;0.00;0.00;;;;;;;34.08;73.24;102700.06;4908837;29;20039;-76
2023/01/24 11:05:15;;;;;;;0.00;0.00;;;;;;;34.55;72.68;102696.16;4891949;29;20032;-75
2023/01/24 11:07:47;;;;;;;0.00;0.00;;;;;;;35.00;71.85;102704.22;4911303;29;20039;-76
2023/01/24 11:10:30;;;;;;;0.00;0.00;;;;;;;34.99;71.75;102696.88;4894904;29;20112;-75
2023/01/24 11:12:57;;;;;;;0.00;0.00;;;;;;;35.37;70.51;102692.22;4900795;29;20035;-75
2023/01/24 11:15:30;;;;;;;0.00;0.00;;;;;;;35.66;70.34;102687.75;4904802;29;20043;-76
2023/01/24 11:18:28;;;;;;;0.00;0.00;;;;;;;35.67;71.08;102691.41;4912955;29;20479;-75
2023/01/24 11:21:16;;;;;;;0.00;0.00;;;;;;;36.08;70.81;102694.38;4876143;29;20483;-75
2023/01/24 11:23:42;;;;;;;0.00;0.00;;;;;;;36.43;70.33;102682.56;4896668;29;20023;-75
2023/01/24 11:26:27;;;;;;;0.00;0.00;;;;;;;36.71;69.98;102684.03;4911989;29;20028;-75
2023/01/24 11:28:59;;;;;;;;;;;;;;;36.60;69.32;102686.81;4890159;29;20028;-76
2023/01/24 11:31:37;;;;;;;0.00;0.00;;;;;;;36.86;69.60;102668.72;4894561;29;19914;-76
2023/01/24 11:34:11;;;;;;;0.00;0.00;;;;;;;37.49;67.77;102685.84;4888583;29;20052;-76
2023/01/24 11:36:49;;;;;;;0.00;0.00;;;;;;;37.68;67.41;102670.44;4909729;29;20396;-76
2023/01/24 11:39:31;;;;;;;0.00;0.00;;;;;;;38.26;66.94;102664.13;4905120;29;20382;-75
2023/01/24 11:42:09;;;;;;;0.00;0.00;;;;;;;38.43;67.42;102657.63;4895046;29;20111;-76
2023/01/24 11:44:55;;;;;;;0.00;0.00;;;;;;;38.74;67.46;102661.75;4908690;29;20016;-76
2023/01/24 11:47:23;;;;;;;0.00;0.00;;;;;;;39.08;67.55;102651.88;4906502;29;20024;-75
2023/01/24 11:50:17;;;;;;;0.00;0.00;;;;;;;39.22;67.71;102662.50;4907178;29;20043;-75
2023/01/24 11:52:57;;;;;;;0.00;0.00;;;;;;;39.28;66.99;102649.38;4904222;29;20024;-74
2023/01/24 11:55:54;;;;;;;0.00;0.00;;;;;;;39.27;67.92;102653.50;4912972;29;20032;-76
2023/01/24 11:58:42;;;;;;;0.00;0.00;;;;;;;38.30;70.08;102648.63;4894300;29;20036;-76
2023/01/24 12:01:21;;;;;;;0.00;0.00;;;;;;;38.34;71.22;102648.63;4890522;29;20040;-76
2023/01/24 12:04:08;;;;;;;0.00;0.00;;;;;;;38.64;68.42;102651.09;4891636;29;20771;-76
2023/01/24 12:06:48;;;;;;;0.00;0.00;;;;;;;38.76;69.79;102635.59;4903149;29;20024;-74
2023/01/24 12:09:26;;;;;;;0.00;0.00;;;;;;;39.45;67.46;102630.53;4895121;29;20036;-76
2023/01/24 12:12:09;;;;;;;0.00;0.00;;;;;;;40.20;66.27;102642.84;4901894;29;20030;-75